createdAt,value
2023-05-10T00:02:20.205Z,11.52
2023-05-10T00:04:46.517Z,12.13
2023-05-10T00:07:12.885Z,12.20
2023-05-10T00:09:39.190Z,11.13
2023-05-10T00:12:05.797Z,11.75
2023-05-10T00:14:32.361Z,13.18
2023-05-10T00:16:58.748Z,12.63
2023-05-10T00:19:25.149Z,13.32
2023-05-10T00:21:51.453Z,11.32
2023-05-10T00:24:17.786Z,11.93
2023-05-10T00:26:44.210Z,11.68
2023-05-10T00:29:10.529Z,12.32
2023-05-10T00:31:36.937Z,11.40
2023-05-10T00:34:03.291Z,10.85
2023-05-10T00:36:29.690Z,11.95
2023-05-10T00:38:55.985Z,11.50
2023-05-10T00:41:22.806Z,10.52
2023-05-10T00:43:49.369Z,12.88
2023-05-10T00:46:16.256Z,12.73
2023-05-10T00:48:43.337Z,13.95
2023-05-10T00:51:09.874Z,11.48
2023-05-10T00:53:36.300Z,12.43
2023-05-10T00:56:04.096Z,10.80
2023-05-10T00:58:31.888Z,17.98
2023-05-10T01:00:58.764Z,11.90
2023-05-10T01:03:25.885Z,10.15
2023-05-10T01:05:52.297Z,11.43
2023-05-10T01:08:18.869Z,11.48
2023-05-10T01:10:45.245Z,10.50
2023-05-10T01:13:12.232Z,9.35
2023-05-10T01:15:38.960Z,10.13
2023-05-10T01:18:05.454Z,11.30
2023-05-10T01:20:37.158Z,10.18
2023-05-10T01:23:11.135Z,10.90
2023-05-10T01:25:56.267Z,12.05
2023-05-10T01:28:32.056Z,11.10
2023-05-10T01:31:07.942Z,10.75
2023-05-10T01:33:44.357Z,10.27
2023-05-10T01:36:29.593Z,10.98
2023-05-10T01:38:59.907Z,10.82
2023-05-10T01:41:37.188Z,11.75
2023-05-10T01:44:22.829Z,11.15
2023-05-10T01:49:21.723Z,11.75
2023-05-10T01:51:50.028Z,12.93
2023-05-10T01:54:18.437Z,14.75
2023-05-10T01:56:44.985Z,15.75
2023-05-10T01:59:14.145Z,16.25
2023-05-10T02:01:41.008Z,17.58
2023-05-10T02:04:09.862Z,18.35
2023-05-10T02:06:36.838Z,18.90
2023-05-10T02:09:04.030Z,19.65
2023-05-10T02:11:31.426Z,20.77
2023-05-10T02:13:58.956Z,19.60
2023-05-10T02:16:27.208Z,20.95
2023-05-10T02:18:53.766Z,20.05
2023-05-10T02:21:21.295Z,21.85
2023-05-10T02:23:48.522Z,23.02
2023-05-10T02:26:15.225Z,21.90
2023-05-10T02:28:41.778Z,25.27
2023-05-10T02:31:08.439Z,24.02
2023-05-10T02:33:34.811Z,22.75
2023-05-10T02:36:02.435Z,22.40
2023-05-10T02:38:29.266Z,21.77
2023-05-10T02:40:55.802Z,23.42
2023-05-10T02:43:24.298Z,22.38
2023-05-10T02:45:50.743Z,24.73
2023-05-10T02:48:17.408Z,20.80
2023-05-10T02:50:45.491Z,20.98
2023-05-10T02:53:14.370Z,21.98
2023-05-10T02:55:42.168Z,23.33
2023-05-10T02:58:08.579Z,23.25
2023-05-10T03:00:35.002Z,21.38
2023-05-10T03:03:01.395Z,22.52
2023-05-10T03:05:27.813Z,21.60
2023-05-10T03:07:54.761Z,21.88
2023-05-10T03:10:22.934Z,23.15
2023-05-10T03:13:07.883Z,21.40
2023-05-10T03:15:49.777Z,19.73
2023-05-10T03:18:22.299Z,20.23
2023-05-10T03:20:49.942Z,21.05
2023-05-10T03:23:19.025Z,19.15
2023-05-10T03:25:47.765Z,20.40
2023-05-10T03:28:15.328Z,20.40
2023-05-10T03:30:42.558Z,19.15
2023-05-10T03:33:09.047Z,18.98
2023-05-10T03:35:35.449Z,20.92
2023-05-10T03:38:02.003Z,18.13
2023-05-10T03:40:30.029Z,16.92
2023-05-10T03:42:56.451Z,19.80
2023-05-10T03:45:23.115Z,18.90
2023-05-10T03:47:49.455Z,17.73
2023-05-10T03:50:16.025Z,17.42
2023-05-10T03:52:42.595Z,18.95
2023-05-10T03:55:08.987Z,16.83
2023-05-10T03:57:35.290Z,17.85
2023-05-10T04:00:01.764Z,18.33
2023-05-10T04:02:28.253Z,18.20
2023-05-10T04:04:54.669Z,19.10
2023-05-10T04:07:21.047Z,18.65
2023-05-10T04:09:47.665Z,17.00
2023-05-10T04:12:14.076Z,18.00
2023-05-10T04:14:40.622Z,18.33
2023-05-10T04:17:07.256Z,19.17
2023-05-10T04:19:33.888Z,17.45
2023-05-10T04:22:00.301Z,18.10
2023-05-10T04:24:26.801Z,17.92
2023-05-10T04:26:53.300Z,16.20
2023-05-10T04:29:19.702Z,17.20
2023-05-10T04:31:46.056Z,17.55
2023-05-10T04:34:12.446Z,20.73
2023-05-10T04:36:38.802Z,19.90
2023-05-10T04:39:05.420Z,18.40
2023-05-10T04:41:31.796Z,18.88
2023-05-10T04:43:58.111Z,18.83
2023-05-10T04:46:24.421Z,18.83
2023-05-10T04:48:50.841Z,16.58
2023-05-10T04:51:17.152Z,18.48
2023-05-10T04:53:48.593Z,16.10
2023-05-10T04:56:24.073Z,17.80
2023-05-10T04:58:50.560Z,18.05
2023-05-10T05:01:16.979Z,17.35
2023-05-10T05:03:43.618Z,18.23
2023-05-10T05:06:11.115Z,16.92
2023-05-10T05:08:37.476Z,18.20
2023-05-10T05:11:03.863Z,18.08
2023-05-10T05:13:30.515Z,10.90
2023-05-10T05:15:57.052Z,10.60
2023-05-10T05:18:23.473Z,19.80
2023-05-10T05:20:49.787Z,20.67
2023-05-10T05:23:16.150Z,19.45
2023-05-10T05:25:43.034Z,20.23
2023-05-10T05:28:09.504Z,20.05
2023-05-10T05:30:35.864Z,21.05
2023-05-10T05:33:02.276Z,21.33
2023-05-10T05:35:28.621Z,18.67
2023-05-10T05:37:54.998Z,20.88
2023-05-10T05:40:21.486Z,20.88
2023-05-10T05:42:47.868Z,22.13
2023-05-10T05:45:14.711Z,22.15
2023-05-10T05:47:41.321Z,20.25
2023-05-10T05:50:07.885Z,18.73
2023-05-10T05:52:34.363Z,22.20
2023-05-10T05:55:01.245Z,19.92
2023-05-10T05:57:27.663Z,21.77
2023-05-10T05:59:53.999Z,21.10
2023-05-10T06:02:20.304Z,19.77
2023-05-10T06:04:47.424Z,19.15
2023-05-10T06:07:13.710Z,19.45
2023-05-10T06:09:40.007Z,20.85
2023-05-10T06:12:06.411Z,18.73
2023-05-10T06:14:32.798Z,20.85
2023-05-10T06:17:00.824Z,72.00
2023-05-10T06:19:27.435Z,13.15
2023-05-10T06:21:54.087Z,19.35
2023-05-10T06:24:20.527Z,20.30
2023-05-10T06:26:46.914Z,18.17
2023-05-10T06:29:13.311Z,20.80
2023-05-10T06:31:39.686Z,19.60
2023-05-10T06:34:07.374Z,21.23
2023-05-10T06:36:33.694Z,19.90
2023-05-10T06:39:00.088Z,21.25
2023-05-10T06:41:26.479Z,21.10
2023-05-10T06:43:52.799Z,21.10
2023-05-10T06:46:19.183Z,20.63
2023-05-10T06:48:45.714Z,20.98
2023-05-10T06:51:12.058Z,23.50
2023-05-10T06:53:38.436Z,20.95
2023-05-10T06:56:04.767Z,22.98
2023-05-10T06:58:31.084Z,21.88
2023-05-10T07:01:02.561Z,21.35
2023-05-10T07:03:28.937Z,22.50
2023-05-10T07:05:56.139Z,20.83
2023-05-10T07:08:22.518Z,20.17
2023-05-10T07:10:48.856Z,19.90
2023-05-10T07:13:15.632Z,19.88
2023-05-10T07:15:42.138Z,20.77
2023-05-10T07:18:08.609Z,17.67
2023-05-10T07:20:35.041Z,18.48
2023-05-10T07:23:01.356Z,21.02
2023-05-10T07:25:27.727Z,18.08
2023-05-10T07:27:54.126Z,17.40
2023-05-10T07:30:20.606Z,15.63
2023-05-10T07:32:47.223Z,15.35
2023-05-10T07:35:13.602Z,16.05
2023-05-10T07:37:39.933Z,14.85
2023-05-10T07:40:06.620Z,16.08
2023-05-10T07:42:32.995Z,15.13
2023-05-10T07:44:59.336Z,14.25
2023-05-10T07:47:25.727Z,15.18
2023-05-10T07:49:52.346Z,14.77
2023-05-10T07:52:20.609Z,14.93
2023-05-10T07:54:48.213Z,14.48
2023-05-10T07:57:16.361Z,15.52
2023-05-10T07:59:43.115Z,13.85
2023-05-10T08:02:09.445Z,12.95
2023-05-10T08:04:35.966Z,14.35
2023-05-10T08:07:02.509Z,13.20
2023-05-10T08:09:28.932Z,13.63
2023-05-10T08:11:55.320Z,13.18
2023-05-10T08:14:21.698Z,11.63
2023-05-10T08:16:48.147Z,13.13
2023-05-10T08:19:14.541Z,11.95
2023-05-10T08:21:43.317Z,12.85
2023-05-10T08:24:09.714Z,11.32
2023-05-10T08:26:36.149Z,9.80
2023-05-10T08:29:02.638Z,11.80
2023-05-10T08:31:29.040Z,11.63
2023-05-10T08:33:55.402Z,11.05
2023-05-10T08:36:22.981Z,10.82
2023-05-10T08:38:52.104Z,11.18
2023-05-10T08:41:21.912Z,11.70
2023-05-10T08:43:48.505Z,12.00
2023-05-10T08:46:18.986Z,13.00
2023-05-10T08:48:46.207Z,11.50
2023-05-10T08:51:15.002Z,11.50
2023-05-10T08:53:41.484Z,10.85
2023-05-10T08:56:08.020Z,10.38
2023-05-10T08:58:34.362Z,10.63
2023-05-10T09:01:01.857Z,11.13
2023-05-10T09:03:28.319Z,10.68
2023-05-10T09:05:56.732Z,9.75
2023-05-10T09:08:26.372Z,9.82
2023-05-10T09:10:53.051Z,8.73
2023-05-10T09:13:19.964Z,8.75
2023-05-10T09:15:46.445Z,8.52
2023-05-10T09:18:13.411Z,9.63
2023-05-10T09:20:39.915Z,8.57
2023-05-10T09:23:06.843Z,9.13
2023-05-10T09:25:34.657Z,7.82
2023-05-10T09:28:01.221Z,8.23
2023-05-10T09:30:29.016Z,9.15
2023-05-10T09:32:56.650Z,10.13
2023-05-10T09:35:26.582Z,8.70
2023-05-10T09:37:56.150Z,10.75
2023-05-10T09:40:23.607Z,10.05
2023-05-10T09:43:00.360Z,7.40
2023-05-10T09:45:30.687Z,8.73
2023-05-10T09:47:57.441Z,10.40
2023-05-10T09:50:24.158Z,11.55
2023-05-10T09:52:54.488Z,9.68
2023-05-10T09:55:25.680Z,3.83
2023-05-10T09:58:02.001Z,22.73
2023-05-10T10:00:29.097Z,31.13
2023-05-10T10:02:56.525Z,17.88
2023-05-10T10:05:28.819Z,23.25
2023-05-10T10:07:56.332Z,17.20
2023-05-10T10:10:22.690Z,21.63
2023-05-10T10:12:49.152Z,20.63
2023-05-10T10:15:16.874Z,20.50
2023-05-10T10:17:44.140Z,22.70
2023-05-10T10:20:12.088Z,32.67
2023-05-10T10:22:38.681Z,26.55
2023-05-10T10:25:05.412Z,20.75
2023-05-10T10:27:34.786Z,20.55
2023-05-10T10:30:01.075Z,25.10
2023-05-10T10:32:45.848Z,20.75
2023-05-10T10:35:12.383Z,14.55
2023-05-10T10:37:45.595Z,23.13
2023-05-10T10:40:27.882Z,24.85
2023-05-10T10:42:55.034Z,21.17
2023-05-10T10:45:22.285Z,19.63
2023-05-10T10:47:49.186Z,20.85
2023-05-10T10:50:17.120Z,3.65
2023-05-10T10:52:44.454Z,2.70
2023-05-10T10:55:14.101Z,21.05
2023-05-10T10:58:01.593Z,31.05
2023-05-10T11:00:29.595Z,24.70
2023-05-10T11:03:07.277Z,30.25
2023-05-10T11:05:33.633Z,31.17
2023-05-10T11:08:00.515Z,29.92
2023-05-10T11:10:27.630Z,31.25
2023-05-10T11:13:04.997Z,28.98
2023-05-10T11:15:35.822Z,33.53
2023-05-10T11:18:22.563Z,28.58
2023-05-10T11:20:59.774Z,23.98
2023-05-10T11:23:31.483Z,23.17
2023-05-10T11:25:57.881Z,10.02
2023-05-10T11:28:24.286Z,5.50
2023-05-10T11:30:50.912Z,4.68
2023-05-10T11:33:18.579Z,3.28
2023-05-10T11:35:47.954Z,28.75
2023-05-10T11:38:14.700Z,66.00
2023-05-10T11:40:41.945Z,56.63
2023-05-10T11:43:09.517Z,24.50
2023-05-10T11:45:36.561Z,22.83
2023-05-10T11:48:03.777Z,2.75
2023-05-10T11:50:30.307Z,2.45
2023-05-10T11:52:57.726Z,2.63
2023-05-10T11:55:25.243Z,2.47
2023-05-10T11:57:54.937Z,2.67
2023-05-10T12:00:21.567Z,2.33
2023-05-10T12:02:48.346Z,2.30
2023-05-10T12:05:14.932Z,2.13
2023-05-10T12:07:41.315Z,3.13
2023-05-10T12:10:08.401Z,2.13
2023-05-10T12:12:38.253Z,2.97
2023-05-10T12:15:05.372Z,3.10
2023-05-10T12:17:31.830Z,3.30
2023-05-10T12:20:17.299Z,4.10
2023-05-10T12:25:10.893Z,4.28
2023-05-10T12:27:37.230Z,3.55
2023-05-10T12:30:03.815Z,3.25
2023-05-10T12:32:42.700Z,3.42
2023-05-10T12:35:09.790Z,3.63
2023-05-10T12:37:39.776Z,2.78
2023-05-10T12:40:07.452Z,3.22
2023-05-10T12:42:33.882Z,4.15
2023-05-10T12:45:00.315Z,3.28
2023-05-10T12:47:26.998Z,3.22
2023-05-10T12:49:53.408Z,2.95
2023-05-10T12:52:19.721Z,3.63
2023-05-10T12:54:46.599Z,3.65
2023-05-10T12:57:13.656Z,2.95
2023-05-10T12:59:40.116Z,3.58
2023-05-10T13:02:07.052Z,2.78
2023-05-10T13:04:33.448Z,2.72
2023-05-10T13:06:59.953Z,3.15
2023-05-10T13:09:27.556Z,2.90
2023-05-10T13:11:56.908Z,3.58
2023-05-10T13:14:23.355Z,2.90
2023-05-10T13:16:49.755Z,2.78
2023-05-10T13:19:16.912Z,3.67
2023-05-10T13:21:43.567Z,3.88
2023-05-10T13:24:09.926Z,3.67
2023-05-10T13:26:37.263Z,4.18
2023-05-10T13:29:04.230Z,36.17
2023-05-10T13:31:30.610Z,36.72
2023-05-10T13:33:56.980Z,38.42
2023-05-10T13:36:23.844Z,35.78
2023-05-10T13:38:50.192Z,40.15
2023-05-10T13:41:16.519Z,39.15
2023-05-10T13:43:42.900Z,35.83
2023-05-10T13:46:09.241Z,37.85
2023-05-10T13:48:39.112Z,39.60
2023-05-10T13:51:05.631Z,35.97
2023-05-10T13:53:31.979Z,30.70
2023-05-10T13:55:58.260Z,34.78
2023-05-10T13:58:24.643Z,31.90
2023-05-10T14:00:50.964Z,28.55
2023-05-10T14:03:18.114Z,31.38
2023-05-10T14:05:45.977Z,31.73
2023-05-10T14:08:14.137Z,28.13
2023-05-10T14:10:40.697Z,25.25
2023-05-10T14:13:07.436Z,29.35
2023-05-10T14:15:33.756Z,25.02
2023-05-10T14:18:00.497Z,24.75
2023-05-10T14:20:27.093Z,26.80
2023-05-10T14:22:53.558Z,25.52
2023-05-10T14:25:20.093Z,30.05
2023-05-10T14:27:46.579Z,43.45
2023-05-10T14:30:13.074Z,37.90
2023-05-10T14:32:39.472Z,31.98
2023-05-10T14:35:07.033Z,29.33
2023-05-10T14:37:33.444Z,26.45
2023-05-10T14:39:59.768Z,24.75
2023-05-10T14:42:26.087Z,28.65
2023-05-10T14:44:52.478Z,7.80
2023-05-10T14:47:18.833Z,9.55
2023-05-10T14:49:45.138Z,8.25
2023-05-10T14:52:13.118Z,7.97
2023-05-10T14:54:39.683Z,8.02
2023-05-10T14:57:06.481Z,7.90
2023-05-10T14:59:32.838Z,7.85
2023-05-10T15:01:59.978Z,7.65
2023-05-10T15:04:28.381Z,7.15
2023-05-10T15:07:00.069Z,9.48
2023-05-10T15:09:28.407Z,9.32
2023-05-10T15:11:55.055Z,9.80
2023-05-10T15:14:21.448Z,9.25
2023-05-10T15:16:47.771Z,9.32
2023-05-10T15:19:14.064Z,8.65
2023-05-10T15:21:43.230Z,8.25
2023-05-10T15:24:09.551Z,8.68
2023-05-10T15:26:36.164Z,8.20
2023-05-10T15:29:02.640Z,8.43
2023-05-10T15:31:29.186Z,12.60
2023-05-10T15:33:58.060Z,10.57
2023-05-10T15:36:24.411Z,11.70
2023-05-10T15:38:50.730Z,13.05
2023-05-10T15:41:17.098Z,13.90
2023-05-10T15:43:43.467Z,14.02
2023-05-10T15:46:09.825Z,13.85
2023-05-10T15:48:36.563Z,14.40
2023-05-10T15:51:02.934Z,12.98
2023-05-10T15:53:29.246Z,16.13
2023-05-10T15:55:55.633Z,13.48
2023-05-10T15:58:21.995Z,13.77
2023-05-10T16:00:48.460Z,14.50
2023-05-10T16:03:14.832Z,11.10
2023-05-10T16:05:41.217Z,17.42
2023-05-10T16:08:07.504Z,16.25
2023-05-10T16:10:33.926Z,11.13
2023-05-10T16:13:00.649Z,12.45
2023-05-10T16:15:27.660Z,13.07
2023-05-10T16:17:54.234Z,15.05
2023-05-10T16:20:20.758Z,13.30
2023-05-10T16:22:47.046Z,12.82
2023-05-10T16:25:13.777Z,15.90
2023-05-10T16:27:40.387Z,14.40
2023-05-10T16:30:06.877Z,17.08
2023-05-10T16:32:33.214Z,23.02
2023-05-10T16:35:00.416Z,22.60
2023-05-10T16:37:26.850Z,6.57
2023-05-10T16:39:53.148Z,6.57
2023-05-10T16:42:19.496Z,5.68
2023-05-10T16:44:45.918Z,5.22
2023-05-10T16:47:12.271Z,4.95
2023-05-10T16:49:38.593Z,5.80
2023-05-10T16:52:04.967Z,5.13
2023-05-10T16:54:31.280Z,3.10
2023-05-10T16:56:57.650Z,2.75
2023-05-10T16:59:23.961Z,2.63
2023-05-10T17:01:50.671Z,2.80
2023-05-10T17:04:17.770Z,2.47
2023-05-10T17:06:44.136Z,3.22
2023-05-10T17:09:10.522Z,3.28
2023-05-10T17:11:36.853Z,3.85
2023-05-10T17:14:03.313Z,4.60
2023-05-10T17:16:30.125Z,4.80
2023-05-10T17:18:56.740Z,5.07
2023-05-10T17:21:23.094Z,5.28
2023-05-10T17:23:49.446Z,5.57
2023-05-10T17:26:15.825Z,4.97
2023-05-10T17:28:42.115Z,5.97
2023-05-10T17:31:08.675Z,6.47
2023-05-10T17:33:35.527Z,6.20
2023-05-10T17:36:01.934Z,6.45
2023-05-10T17:38:28.256Z,6.53
2023-05-10T17:40:54.922Z,5.45
2023-05-10T17:43:21.574Z,6.40
2023-05-10T17:45:49.374Z,4.97
2023-05-10T17:48:15.729Z,4.90
2023-05-10T17:50:43.314Z,6.20
2023-05-10T17:53:09.758Z,4.85
2023-05-10T17:55:36.165Z,6.95
2023-05-10T17:58:02.584Z,6.57
2023-05-10T18:00:28.935Z,7.10
2023-05-10T18:02:55.485Z,7.28
2023-05-10T18:05:22.334Z,7.30
2023-05-10T18:07:49.067Z,10.25
2023-05-10T18:10:15.503Z,5.53
2023-05-10T18:12:41.917Z,4.75
2023-05-10T18:15:08.513Z,6.50
2023-05-10T18:17:35.079Z,5.45
2023-05-10T18:20:02.244Z,4.95
2023-05-10T18:22:28.960Z,9.82
2023-05-10T18:24:55.384Z,9.25
2023-05-10T18:27:21.863Z,12.10
2023-05-10T18:29:48.181Z,9.88
2023-05-10T18:32:14.628Z,10.35
2023-05-10T18:34:41.003Z,9.57
2023-05-10T18:37:08.149Z,7.47
2023-05-10T18:39:34.545Z,7.90
2023-05-10T18:42:00.872Z,7.15
2023-05-10T18:44:27.218Z,8.07
2023-05-10T18:46:54.368Z,9.77
2023-05-10T18:49:20.761Z,9.93
2023-05-10T18:51:47.468Z,9.45
2023-05-10T18:54:14.563Z,10.15
2023-05-10T18:56:44.529Z,8.02
2023-05-10T18:59:11.836Z,9.00
2023-05-10T19:01:38.578Z,8.25
2023-05-10T19:04:05.087Z,7.72
2023-05-10T19:06:31.547Z,8.30
2023-05-10T19:08:57.866Z,6.28
2023-05-10T19:11:24.259Z,7.20
2023-05-10T19:13:50.687Z,6.60
2023-05-10T19:16:17.320Z,7.25
2023-05-10T19:18:45.904Z,5.65
2023-05-10T19:21:12.283Z,6.05
2023-05-10T19:23:42.971Z,5.97
2023-05-10T19:26:11.621Z,6.60
2023-05-10T19:28:37.966Z,6.10
2023-05-10T19:31:04.460Z,7.38
2023-05-10T19:33:30.924Z,5.22
2023-05-10T19:35:57.317Z,5.88
2023-05-10T19:38:24.194Z,5.22
2023-05-10T19:40:50.960Z,6.15
2023-05-10T19:43:17.750Z,6.00
2023-05-10T19:45:44.117Z,4.95
2023-05-10T19:48:11.083Z,5.55
2023-05-10T19:50:38.491Z,4.50
2023-05-10T19:53:04.958Z,4.90
2023-05-10T19:55:31.898Z,4.57
2023-05-10T19:58:00.592Z,5.15
2023-05-10T20:00:29.869Z,4.75
2023-05-10T20:02:56.352Z,4.82
2023-05-10T20:05:23.080Z,4.93
2023-05-10T20:07:49.536Z,4.60
2023-05-10T20:10:16.553Z,5.05
2023-05-10T20:12:49.588Z,5.00
2023-05-10T20:15:16.191Z,4.90
2023-05-10T20:17:42.672Z,5.22
2023-05-10T20:20:09.214Z,4.70
2023-05-10T20:22:35.591Z,4.35
2023-05-10T20:25:02.030Z,4.65
2023-05-10T20:27:28.756Z,4.53
2023-05-10T20:29:55.115Z,4.35
2023-05-10T20:32:21.465Z,4.63
2023-05-10T20:34:47.903Z,5.00
2023-05-10T20:37:14.305Z,5.15
2023-05-10T20:39:40.832Z,5.45
2023-05-10T20:42:07.938Z,5.13
2023-05-10T20:44:34.330Z,5.13
2023-05-10T20:47:01.124Z,4.72
2023-05-10T20:49:28.052Z,4.68
2023-05-10T20:51:54.496Z,4.68
2023-05-10T20:54:22.004Z,4.35
2023-05-10T20:56:48.441Z,3.85
2023-05-10T20:59:14.748Z,4.20
2023-05-10T21:01:41.139Z,4.22
2023-05-10T21:04:07.520Z,4.32
2023-05-10T21:06:33.830Z,4.68
2023-05-10T21:09:00.362Z,5.18
2023-05-10T21:11:26.720Z,5.30
2023-05-10T21:13:53.146Z,4.78
2023-05-10T21:16:19.861Z,4.78
2023-05-10T21:18:46.423Z,5.47
2023-05-10T21:21:12.844Z,5.43
2023-05-10T21:23:39.209Z,5.00
2023-05-10T21:26:05.625Z,5.18
2023-05-10T21:28:32.035Z,6.22
2023-05-10T21:30:58.507Z,6.22
2023-05-10T21:33:24.853Z,6.50
2023-05-10T21:35:51.239Z,5.63
2023-05-10T21:38:17.661Z,6.50
2023-05-10T21:40:44.158Z,6.53
2023-05-10T21:43:11.364Z,5.75
2023-05-10T21:45:38.073Z,6.97
2023-05-10T21:48:04.518Z,6.55
2023-05-10T21:50:30.868Z,5.95
2023-05-10T21:52:57.368Z,9.70
2023-05-10T21:55:23.742Z,6.57
2023-05-10T21:57:50.886Z,6.63
2023-05-10T22:00:19.311Z,7.18
2023-05-10T22:02:46.726Z,7.38
2023-05-10T22:05:13.345Z,7.00
2023-05-10T22:07:39.804Z,6.70
2023-05-10T22:10:06.900Z,6.57
2023-05-10T22:12:33.243Z,6.47
2023-05-10T22:17:33.144Z,4.88
2023-05-10T22:19:59.551Z,7.45
2023-05-10T22:22:25.940Z,7.20
2023-05-10T22:24:52.525Z,8.32
2023-05-10T22:27:19.108Z,6.90
2023-05-10T22:29:46.510Z,7.82
2023-05-10T22:32:12.985Z,8.60
2023-05-10T22:34:39.332Z,22.05
2023-05-10T22:37:05.827Z,7.53
2023-05-10T22:39:32.155Z,6.65
2023-05-10T22:41:58.462Z,7.45
2023-05-10T22:44:24.845Z,8.13
2023-05-10T22:46:51.778Z,8.13
2023-05-10T22:49:18.218Z,9.30
2023-05-10T22:51:44.655Z,8.77
2023-05-10T22:54:11.103Z,10.30
2023-05-10T22:56:37.569Z,9.85
2023-05-10T22:59:03.983Z,9.45
2023-05-10T23:01:30.412Z,7.93
2023-05-10T23:03:56.822Z,8.82
2023-05-10T23:06:23.212Z,9.50
2023-05-10T23:08:49.801Z,8.30
2023-05-10T23:11:16.300Z,8.80
2023-05-10T23:13:42.707Z,9.63
2023-05-10T23:16:09.245Z,8.70
2023-05-10T23:18:35.767Z,8.90
2023-05-10T23:21:02.444Z,8.90
2023-05-10T23:23:28.853Z,8.82
2023-05-10T23:25:55.301Z,8.95
2023-05-10T23:28:21.659Z,8.27
2023-05-10T23:30:47.983Z,8.90
2023-05-10T23:33:14.366Z,10.93
2023-05-10T23:35:40.985Z,11.38
2023-05-10T23:38:07.313Z,9.25
2023-05-10T23:40:35.188Z,10.02
2023-05-10T23:43:01.528Z,10.57
2023-05-10T23:45:27.905Z,9.68
2023-05-10T23:47:54.385Z,10.23
2023-05-10T23:50:20.718Z,12.00
2023-05-10T23:52:47.073Z,10.52
2023-05-10T23:55:13.511Z,10.43
2023-05-10T23:57:39.893Z,10.75
